world map with BGY marked

BGY - Airport

This information may not be accurate or current and is not valid for navigation or flight planning. No warranty of fitness for any purpose is made or implied.

flag of Lombardyflag of Italy

Donate via PayPal

Additional information is available on the NEW Great Circle Mapper

Location
City:  Bergamo, Lombardy, Italy
Name:Orio al Serio
ICAO / IATA:LIME / BGY

Details
Type:Airport (Aerodrome, Airfield)
Use:Public/Civil
Latitude:45°40'26"N (45.673889)
Longitude:9°42'15"E (9.704166)
Datum:WGS 1984
Elevation:782 ft (238 m)
Runways:2
Longest:9636 × 148 ft (2937 × 45 m)

Time
Timezone:UTC+1 (DST+4)
Local Time:

Weather
METAR:LIME  041350Z 23004KT 190V290 CAVOK 10/M02 Q1024 NOSIG
TAF:LIME  041100Z 0412/0512 VRB05KT 9999 SCT060

Related Locations
Nearby:
Farthest:CHT: 12109 mi / 19488 km
Waitangi [Tuuta], CIT, NZ

Find:

   beyond  
but within

Other Information
Maps:
Sources:

  


 


Great Circle Mapper   Great Circle Mapper
Great Circle Mapper FAQ   Great Circle Mapper FAQ
  Karl's Home Page
KLSē   KLSē Home
   GC on Facebook
Airlines of the World   Airlines of the World
Donate via PayPal


Copyright © 2004-2019, Karl L. Swartz. All rights reserved.
All trademarks mentioned herein belong to their respective owners.

Please see credits for attribution and copyright information.

Karl Swartz <karl@kls2.com>
  Powered by FreeBSD
Valid HTML 4.01!
Labeled with ICRA
hCard Microformat
Geo Microformat